This is the latest recevied weather packets stored in our database for station/object K4FB. If no packets are shown the sender has not sent any weather packets the latest 10 day(s).
| Time | Temp. | Humidity | Pressure | Rain* | Wind** | Luminosity | Snow |
|---|---|---|---|---|---|---|---|
| 1777617025 | 21.11° C | 91% | 1012.6 hPa | 0 mm | - | - | - |
| 1777615506 | 21.11° C | 90% | 1013 hPa | 0 mm | - | - | - |
| 1777611631 | 22.22° C | 89% | 1013.4 hPa | 0 mm | - | - | - |
| 1777611310 | 21.67° C | 89% | 1013.4 hPa | 0 mm | - | - | - |
| 1777607705 | 22.78° C | 87% | 1013.7 hPa | 0 mm | - | - | - |
| 1777606807 | 22.78° C | 87% | 1013.7 hPa | 0 mm | - | - | - |
| 1777605304 | 22.78° C | 86% | 1013.2 hPa | 0 mm | - | - | - |
| 1777604405 | 22.78° C | 86% | 1013.2 hPa | 0 mm | - | - | - |
| 1777602906 | 22.78° C | 84% | 1013 hPa | 0 mm | - | - | - |
| 1777602303 | 23.33° C | 83% | 1013.1 hPa | 0 mm | - | - | - |
| 1777600805 | 23.89° C | 81% | 1012.8 hPa | 0 mm | - | - | - |
| 1777600502 | 23.89° C | 81% | 1012.7 hPa | 0 mm | - | - | - |
| 1777599604 | 23.89° C | 80% | 1012.8 hPa | 0 mm | - | - | - |
| 1777597225 | 24.44° C | 76% | 1012.7 hPa | 0 mm | - | - | - |
| 1777596604 | 24.44° C | 75% | 1012.6 hPa | 0 mm | - | - | - |
| 1777594805 | 25.56° C | 70% | 1012.1 hPa | 0 mm | - | - | - |
| 1777591505 | 27.22° C | 64% | 1011.3 hPa | 0 mm | - | - | - |
| 1777591205 | 27.22° C | 63% | 1011.3 hPa | 0 mm | - | - | - |
| 1777588503 | 27.78° C | 60% | 1011.2 hPa | 0 mm | - | - | - |
| 1777587904 | 28.33° C | 59% | 1011.3 hPa | 0 mm | - | - | - |
| 1777587005 | 28.89° C | 57% | 1011.3 hPa | 0 mm | - | - | - |
| 1777578607 | 33.89° C | 42% | 1011.2 hPa | 0 mm | - | - | - |
| 1777577710 | 33.89° C | 44% | 1011.6 hPa | 0 mm | - | - | - |
| 1777576811 | 34.44° C | 42% | 1011.6 hPa | 0 mm | - | - | - |
| 1777575007 | 34.44° C | 41% | 1011.9 hPa | 0 mm | - | - | - |
* Rain latest hour (hover to see other rain measurements)
** Current wind speed in m/s (hover to see current wind gust speed)